Seneca, Michigan
Current Conditions -  °F | °C
As of 9:53 PM on Monday 22 Dec 2014 (Local Time) from KADG Reporting Station
Light Rain Light Rain  
Wind Chill: 28°   Ceiling: 4800
Heat Index: 35°   Visibility: 5mi
Dew Point: 33°   Wind: 9mph
Humidity: 92%   Direction: 90°E
Pressure: 29.84"   Gusts: NA
Location:  41.79°N, 84.18°W
Report Text: KADG 230253Z AUTO 09008KT 5SM -RA BR OVC048 02/01 A2984 RMK AO2 RAB0158UPB0159E01 SLP115 P0000 60000 T00170006 58015
Loading
Personal Weather Stations






























Interactive Weather Map New forecast layout! Learn more

10-Day Weather Forecast

Advertisements
Track Severe Weather on mobile